sensor_id;sensor_type;location;lat;lon;timestamp;pressure;altitude;pressure_sealevel;temperature;humidity
41222;BME280;26952;42.884;23.918;2022-08-01T00:02:29;95736.38;;;16.53;92.90
41222;BME280;26952;42.884;23.918;2022-08-01T00:04:56;95733.06;;;16.44;93.29
41222;BME280;26952;42.884;23.918;2022-08-01T00:07:22;95716.88;;;16.33;93.72
41222;BME280;26952;42.884;23.918;2022-08-01T00:09:47;95730.84;;;16.35;93.73
41222;BME280;26952;42.884;23.918;2022-08-01T00:12:13;95741.53;;;16.48;93.25
41222;BME280;26952;42.884;23.918;2022-08-01T00:14:38;95739.88;;;16.47;91.69
41222;BME280;26952;42.884;23.918;2022-08-01T00:17:04;95743.16;;;16.49;92.68
41222;BME280;26952;42.884;23.918;2022-08-01T00:19:29;95744.41;;;16.46;93.72
41222;BME280;26952;42.884;23.918;2022-08-01T00:21:55;95732.91;;;16.26;94.83
41222;BME280;26952;42.884;23.918;2022-08-01T00:24:20;95734.38;;;16.29;95.08
41222;BME280;26952;42.884;23.918;2022-08-01T00:26:45;95738.91;;;16.22;96.00
41222;BME280;26952;42.884;23.918;2022-08-01T00:29:11;95722.09;;;16.08;96.16
41222;BME280;26952;42.884;23.918;2022-08-01T00:31:36;95718.63;;;16.08;96.68
41222;BME280;26952;42.884;23.918;2022-08-01T00:34:02;95709.56;;;16.02;96.55
41222;BME280;26952;42.884;23.918;2022-08-01T00:36:27;95731.75;;;16.09;96.63
41222;BME280;26952;42.884;23.918;2022-08-01T00:38:52;95726.03;;;15.99;97.46
41222;BME280;26952;42.884;23.918;2022-08-01T00:41:18;95703.84;;;15.92;97.56
41222;BME280;26952;42.884;23.918;2022-08-01T00:43:43;95656.47;;;15.68;96.11
41222;BME280;26952;42.884;23.918;2022-08-01T00:46:09;95650.50;;;15.73;95.77
41222;BME280;26952;42.884;23.918;2022-08-01T00:48:34;95699.13;;;15.88;96.09
41222;BME280;26952;42.884;23.918;2022-08-01T00:51:00;95671.03;;;15.79;95.69
41222;BME280;26952;42.884;23.918;2022-08-01T00:53:25;95663.63;;;15.81;94.92
41222;BME280;26952;42.884;23.918;2022-08-01T00:55:51;95683.31;;;15.93;95.56
41222;BME280;26952;42.884;23.918;2022-08-01T00:58:17;95697.72;;;15.92;96.74
41222;BME280;26952;42.884;23.918;2022-08-01T01:00:42;95676.38;;;15.79;97.01
41222;BME280;26952;42.884;23.918;2022-08-01T01:03:08;95686.63;;;15.82;97.26
41222;BME280;26952;42.884;23.918;2022-08-01T01:05:44;95676.19;;;15.61;97.84
41222;BME280;26952;42.884;23.918;2022-08-01T01:08:24;95667.38;;;15.54;98.01
41222;BME280;26952;42.884;23.918;2022-08-01T01:10:56;95696.94;;;15.59;97.99
41222;BME280;26952;42.884;23.918;2022-08-01T01:13:43;95677.44;;;15.39;98.15
41222;BME280;26952;42.884;23.918;2022-08-01T01:16:14;95674.78;;;15.39;97.43
41222;BME280;26952;42.884;23.918;2022-08-01T01:18:47;95678.06;;;15.41;95.76
41222;BME280;26952;42.884;23.918;2022-08-01T01:29:24;95657.53;;;15.28;92.70
41222;BME280;26952;42.884;23.918;2022-08-01T01:31:55;95658.34;;;15.15;90.77
41222;BME280;26952;42.884;23.918;2022-08-01T01:34:23;95636.63;;;15.05;90.43
41222;BME280;26952;42.884;23.918;2022-08-01T01:36:50;95660.00;;;15.23;90.93
41222;BME280;26952;42.884;23.918;2022-08-01T01:39:18;95640.91;;;15.06;91.42
41222;BME280;26952;42.884;23.918;2022-08-01T01:41:45;95661.03;;;15.22;88.83
41222;BME280;26952;42.884;23.918;2022-08-01T01:44:13;95656.69;;;15.21;87.63
41222;BME280;26952;42.884;23.918;2022-08-01T01:46:40;95663.06;;;15.26;87.17
41222;BME280;26952;42.884;23.918;2022-08-01T01:49:08;95629.03;;;15.09;88.43
41222;BME280;26952;42.884;23.918;2022-08-01T01:51:35;95633.94;;;14.92;89.85
41222;BME280;26952;42.884;23.918;2022-08-01T01:54:02;95623.06;;;14.87;90.88
41222;BME280;26952;42.884;23.918;2022-08-01T01:56:30;95631.28;;;14.86;89.37
41222;BME280;26952;42.884;23.918;2022-08-01T01:58:58;95642.75;;;14.86;90.21
41222;BME280;26952;42.884;23.918;2022-08-01T02:01:26;95641.94;;;14.79;90.54
41222;BME280;26952;42.884;23.918;2022-08-01T02:03:55;95638.84;;;14.82;89.30
41222;BME280;26952;42.884;23.918;2022-08-01T02:06:24;95647.66;;;14.76;89.82
41222;BME280;26952;42.884;23.918;2022-08-01T02:08:52;95652.16;;;14.76;90.34
41222;BME280;26952;42.884;23.918;2022-08-01T02:11:20;95637.00;;;14.76;89.65
41222;BME280;26952;42.884;23.918;2022-08-01T02:13:59;95648.09;;;14.86;86.27
41222;BME280;26952;42.884;23.918;2022-08-01T02:16:28;95631.66;;;14.70;87.42
41222;BME280;26952;42.884;23.918;2022-08-01T02:18:55;95632.47;;;14.70;88.25
41222;BME280;26952;42.884;23.918;2022-08-01T02:21:26;95631.06;;;14.81;86.57
41222;BME280;26952;42.884;23.918;2022-08-01T02:23:55;95620.38;;;14.61;88.55
41222;BME280;26952;42.884;23.918;2022-08-01T02:26:25;95634.75;;;14.67;86.91
41222;BME280;26952;42.884;23.918;2022-08-01T02:28:59;95636.59;;;14.66;86.29
41222;BME280;26952;42.884;23.918;2022-08-01T02:31:30;95622.19;;;14.48;88.71
41222;BME280;26952;42.884;23.918;2022-08-01T02:34:03;95627.94;;;14.51;86.89
41222;BME280;26952;42.884;23.918;2022-08-01T02:36:33;95603.72;;;14.33;88.33
41222;BME280;26952;42.884;23.918;2022-08-01T02:39:03;95629.97;;;14.49;84.66
41222;BME280;26952;42.884;23.918;2022-08-01T02:41:30;95611.53;;;14.41;88.21
41222;BME280;26952;42.884;23.918;2022-08-01T02:43:59;95621.97;;;14.36;88.95
41222;BME280;26952;42.884;23.918;2022-08-01T02:46:38;95611.13;;;14.38;83.89
41222;BME280;26952;42.884;23.918;2022-08-01T02:49:07;95571.31;;;14.17;87.86
41222;BME280;26952;42.884;23.918;2022-08-01T02:51:35;95613.19;;;14.42;86.50
41222;BME280;26952;42.884;23.918;2022-08-01T02:54:02;95567.78;;;13.97;88.76
41222;BME280;26952;42.884;23.918;2022-08-01T02:56:29;95613.09;;;14.23;88.37
41222;BME280;26952;42.884;23.918;2022-08-01T02:59:10;95602.50;;;14.29;85.83
41222;BME280;26952;42.884;23.918;2022-08-01T03:01:37;95570.22;;;13.98;88.67
41222;BME280;26952;42.884;23.918;2022-08-01T03:04:04;95609.47;;;14.30;87.95
41222;BME280;26952;42.884;23.918;2022-08-01T03:06:32;95591.84;;;14.29;86.89
41222;BME280;26952;42.884;23.918;2022-08-01T03:09:00;95607.81;;;14.29;88.93
41222;BME280;26952;42.884;23.918;2022-08-01T03:11:27;95611.84;;;14.19;89.40
41222;BME280;26952;42.884;23.918;2022-08-01T03:13:55;95610.06;;;14.26;87.14
41222;BME280;26952;42.884;23.918;2022-08-01T03:16:23;95608.81;;;14.28;88.51
41222;BME280;26952;42.884;23.918;2022-08-01T03:18:51;95617.66;;;14.29;90.10
41222;BME280;26952;42.884;23.918;2022-08-01T03:21:20;95611.09;;;14.25;90.39
41222;BME280;26952;42.884;23.918;2022-08-01T03:23:47;95624.56;;;14.23;91.49
41222;BME280;26952;42.884;23.918;2022-08-01T03:26:15;95624.63;;;14.30;90.60
41222;BME280;26952;42.884;23.918;2022-08-01T03:28:41;95627.47;;;14.28;91.71
41222;BME280;26952;42.884;23.918;2022-08-01T03:31:10;95622.53;;;14.25;91.02
41222;BME280;26952;42.884;23.918;2022-08-01T03:33:37;95633.00;;;14.33;90.75
41222;BME280;26952;42.884;23.918;2022-08-01T03:36:04;95621.56;;;14.39;89.42
41222;BME280;26952;42.884;23.918;2022-08-01T03:38:31;95598.19;;;14.28;89.46
41222;BME280;26952;42.884;23.918;2022-08-01T03:41:10;95615.66;;;14.57;89.19
41222;BME280;26952;42.884;23.918;2022-08-01T03:43:40;95621.41;;;14.54;88.61
41222;BME280;26952;42.884;23.918;2022-08-01T03:46:10;95620.81;;;14.65;90.80
41222;BME280;26952;42.884;23.918;2022-08-01T03:48:41;95619.97;;;14.77;91.36
41222;BME280;26952;42.884;23.918;2022-08-01T03:51:08;95599.63;;;15.55;89.69
41222;BME280;26952;42.884;23.918;2022-08-01T03:53:36;95596.41;;;17.03;80.15
41222;BME280;26952;42.884;23.918;2022-08-01T03:56:04;95628.56;;;18.84;71.25
41222;BME280;26952;42.884;23.918;2022-08-01T03:58:33;95627.22;;;20.31;65.76
41222;BME280;26952;42.884;23.918;2022-08-01T04:01:00;95609.19;;;21.66;58.17
41222;BME280;26952;42.884;23.918;2022-08-01T04:03:27;95603.03;;;22.68;55.15
41222;BME280;26952;42.884;23.918;2022-08-01T04:05:52;95587.00;;;23.42;50.77
41222;BME280;26952;42.884;23.918;2022-08-01T04:08:18;95624.97;;;24.45;48.73
41222;BME280;26952;42.884;23.918;2022-08-01T04:10:43;95632.41;;;24.70;48.39
41222;BME280;26952;42.884;23.918;2022-08-01T04:13:09;95597.66;;;24.51;48.39
41222;BME280;26952;42.884;23.918;2022-08-01T04:15:34;95615.50;;;25.34;45.89
41222;BME280;26952;42.884;23.918;2022-08-01T04:18:00;95619.53;;;26.12;43.32
41222;BME280;26952;42.884;23.918;2022-08-01T04:20:25;95612.69;;;26.35;43.53
41222;BME280;26952;42.884;23.918;2022-08-01T04:22:50;95611.19;;;27.21;41.68
41222;BME280;26952;42.884;23.918;2022-08-01T04:25:29;95603.03;;;27.93;40.31
41222;BME280;26952;42.884;23.918;2022-08-01T04:27:59;95604.72;;;28.41;38.77
41222;BME280;26952;42.884;23.918;2022-08-01T04:30:29;95607.91;;;28.91;37.92
41222;BME280;26952;42.884;23.918;2022-08-01T04:32:57;95603.66;;;29.03;37.11
41222;BME280;26952;42.884;23.918;2022-08-01T04:35:24;95609.25;;;29.49;36.64
41222;BME280;26952;42.884;23.918;2022-08-01T04:37:52;95612.06;;;29.81;36.23
41222;BME280;26952;42.884;23.918;2022-08-01T04:40:19;95627.06;;;29.65;36.92
41222;BME280;26952;42.884;23.918;2022-08-01T04:42:48;95607.19;;;28.85;37.70
41222;BME280;26952;42.884;23.918;2022-08-01T04:45:14;95606.53;;;28.22;38.18
41222;BME280;26952;42.884;23.918;2022-08-01T04:47:40;95612.34;;;28.39;38.26
41222;BME280;26952;42.884;23.918;2022-08-01T04:50:08;95600.06;;;27.56;39.51
41222;BME280;26952;42.884;23.918;2022-08-01T04:52:35;95601.91;;;26.00;42.92
41222;BME280;26952;42.884;23.918;2022-08-01T04:55:00;95608.47;;;25.38;44.09
41222;BME280;26952;42.884;23.918;2022-08-01T04:57:27;95622.28;;;25.67;45.78
41222;BME280;26952;42.884;23.918;2022-08-01T04:59:52;95615.97;;;26.27;43.87
41222;BME280;26952;42.884;23.918;2022-08-01T05:02:22;95599.72;;;26.17;44.46
41222;BME280;26952;42.884;23.918;2022-08-01T05:04:48;95601.97;;;25.44;45.32
41222;BME280;26952;42.884;23.918;2022-08-01T05:07:13;95601.50;;;24.60;46.81
41222;BME280;26952;42.884;23.918;2022-08-01T05:09:41;95593.03;;;23.90;49.41
41222;BME280;26952;42.884;23.918;2022-08-01T05:12:08;95588.03;;;24.09;50.29
41222;BME280;26952;42.884;23.918;2022-08-01T05:14:34;95596.47;;;24.27;48.96
41222;BME280;26952;42.884;23.918;2022-08-01T05:17:02;95597.34;;;24.38;49.48
41222;BME280;26952;42.884;23.918;2022-08-01T05:19:31;95610.03;;;24.99;49.25
41222;BME280;26952;42.884;23.918;2022-08-01T05:21:58;95582.41;;;25.32;47.41
41222;BME280;26952;42.884;23.918;2022-08-01T05:24:26;95604.69;;;25.69;46.89
41222;BME280;26952;42.884;23.918;2022-08-01T05:26:53;95611.09;;;26.24;45.52
41222;BME280;26952;42.884;23.918;2022-08-01T05:29:19;95593.41;;;26.36;44.70
41222;BME280;26952;42.884;23.918;2022-08-01T05:31:44;95603.38;;;26.66;45.27
41222;BME280;26952;42.884;23.918;2022-08-01T05:34:10;95604.28;;;26.95;41.71
41222;BME280;26952;42.884;23.918;2022-08-01T05:36:35;95596.81;;;26.72;43.36
41222;BME280;26952;42.884;23.918;2022-08-01T05:39:03;95611.31;;;26.47;44.31
41222;BME280;26952;42.884;23.918;2022-08-01T05:41:28;95605.69;;;26.19;45.46
41222;BME280;26952;42.884;23.918;2022-08-01T05:43:53;95615.91;;;26.47;45.55
41222;BME280;26952;42.884;23.918;2022-08-01T05:46:19;95603.56;;;25.85;38.69
41222;BME280;26952;42.884;23.918;2022-08-01T05:48:44;95608.44;;;25.78;41.91
41222;BME280;26952;42.884;23.918;2022-08-01T05:51:09;95609.00;;;25.30;40.89
41222;BME280;26952;42.884;23.918;2022-08-01T05:53:35;95600.88;;;25.50;43.56
41222;BME280;26952;42.884;23.918;2022-08-01T05:56:00;95597.06;;;25.61;44.27
41222;BME280;26952;42.884;23.918;2022-08-01T05:58:28;95596.22;;;25.31;49.08
41222;BME280;26952;42.884;23.918;2022-08-01T06:00:54;95625.75;;;25.12;45.66
41222;BME280;26952;42.884;23.918;2022-08-01T06:03:19;95603.50;;;24.80;47.58
41222;BME280;26952;42.884;23.918;2022-08-01T06:05:45;95598.47;;;24.52;50.54
41222;BME280;26952;42.884;23.918;2022-08-01T06:08:10;95604.09;;;24.35;52.35
41222;BME280;26952;42.884;23.918;2022-08-01T06:10:36;95594.91;;;24.41;52.51
41222;BME280;26952;42.884;23.918;2022-08-01T06:13:01;95622.19;;;24.82;46.00
41222;BME280;26952;42.884;23.918;2022-08-01T06:15:32;95614.59;;;24.79;48.30
41222;BME280;26952;42.884;23.918;2022-08-01T06:17:57;95592.63;;;24.75;44.56
41222;BME280;26952;42.884;23.918;2022-08-01T06:20:23;95605.09;;;24.81;43.03
41222;BME280;26952;42.884;23.918;2022-08-01T06:22:48;95609.69;;;24.76;46.56
41222;BME280;26952;42.884;23.918;2022-08-01T06:25:14;95594.81;;;24.83;44.75
41222;BME280;26952;42.884;23.918;2022-08-01T06:27:39;95594.69;;;24.53;44.78
41222;BME280;26952;42.884;23.918;2022-08-01T06:30:05;95612.56;;;24.54;47.14
41222;BME280;26952;42.884;23.918;2022-08-01T06:32:33;95615.47;;;24.37;45.23
41222;BME280;26952;42.884;23.918;2022-08-01T06:34:58;95615.84;;;24.66;45.18
41222;BME280;26952;42.884;23.918;2022-08-01T06:37:28;95598.69;;;25.27;41.83
41222;BME280;26952;42.884;23.918;2022-08-01T06:39:54;95625.28;;;25.85;41.91
41222;BME280;26952;42.884;23.918;2022-08-01T06:42:19;95618.47;;;25.88;40.93
41222;BME280;26952;42.884;23.918;2022-08-01T06:44:45;95595.41;;;25.10;41.91
41222;BME280;26952;42.884;23.918;2022-08-01T06:47:10;95610.81;;;25.05;43.01
41222;BME280;26952;42.884;23.918;2022-08-01T06:49:36;95602.69;;;24.85;44.12
41222;BME280;26952;42.884;23.918;2022-08-01T06:52:02;95617.59;;;24.30;45.43
41222;BME280;26952;42.884;23.918;2022-08-01T06:54:28;95614.31;;;24.75;50.71
41222;BME280;26952;42.884;23.918;2022-08-01T06:56:54;95608.72;;;24.45;41.99
41222;BME280;26952;42.884;23.918;2022-08-01T06:59:19;95611.69;;;24.38;43.52
41222;BME280;26952;42.884;23.918;2022-08-01T07:01:45;95611.38;;;24.25;44.40
41222;BME280;26952;42.884;23.918;2022-08-01T07:04:10;95600.28;;;24.26;46.68
41222;BME280;26952;42.884;23.918;2022-08-01T07:06:35;95599.97;;;24.18;47.33
41222;BME280;26952;42.884;23.918;2022-08-01T07:09:01;95603.66;;;24.02;46.16
41222;BME280;26952;42.884;23.918;2022-08-01T07:11:27;95616.56;;;23.95;45.48
41222;BME280;26952;42.884;23.918;2022-08-01T07:13:52;95602.25;;;23.94;44.46
41222;BME280;26952;42.884;23.918;2022-08-01T07:16:18;95613.31;;;24.34;44.69
41222;BME280;26952;42.884;23.918;2022-08-01T07:18:43;95618.53;;;24.51;44.84
41222;BME280;26952;42.884;23.918;2022-08-01T07:21:09;95607.22;;;24.69;42.11
41222;BME280;26952;42.884;23.918;2022-08-01T07:23:35;95598.31;;;24.74;42.34
41222;BME280;26952;42.884;23.918;2022-08-01T07:26:00;95599.09;;;24.64;43.76
41222;BME280;26952;42.884;23.918;2022-08-01T07:28:29;95606.06;;;24.50;40.92
41222;BME280;26952;42.884;23.918;2022-08-01T07:30:54;95606.69;;;24.67;44.66
41222;BME280;26952;42.884;23.918;2022-08-01T07:33:20;95619.47;;;24.92;41.95
41222;BME280;26952;42.884;23.918;2022-08-01T07:35:45;95613.50;;;24.85;42.76
41222;BME280;26952;42.884;23.918;2022-08-01T07:38:11;95620.00;;;24.89;41.17
41222;BME280;26952;42.884;23.918;2022-08-01T07:40:37;95627.66;;;25.12;40.39
41222;BME280;26952;42.884;23.918;2022-08-01T07:43:02;95634.97;;;25.16;44.65
41222;BME280;26952;42.884;23.918;2022-08-01T07:45:28;95619.53;;;25.22;43.40
41222;BME280;26952;42.884;23.918;2022-08-01T07:47:53;95622.53;;;25.20;41.30
41222;BME280;26952;42.884;23.918;2022-08-01T07:50:19;95599.75;;;25.06;44.22
41222;BME280;26952;42.884;23.918;2022-08-01T07:52:44;95614.31;;;24.90;41.18
41222;BME280;26952;42.884;23.918;2022-08-01T07:55:11;95621.38;;;24.86;42.65
41222;BME280;26952;42.884;23.918;2022-08-01T07:57:37;95627.31;;;24.83;42.03
41222;BME280;26952;42.884;23.918;2022-08-01T08:00:04;95632.50;;;25.10;43.07
41222;BME280;26952;42.884;23.918;2022-08-01T08:02:31;95639.31;;;25.32;41.75
41222;BME280;26952;42.884;23.918;2022-08-01T08:04:56;95578.63;;;25.28;43.61
41222;BME280;26952;42.884;23.918;2022-08-01T08:07:22;95626.09;;;25.66;41.82
41222;BME280;26952;42.884;23.918;2022-08-01T08:09:47;95630.44;;;25.82;43.09
41222;BME280;26952;42.884;23.918;2022-08-01T08:12:13;95620.91;;;25.94;39.43
41222;BME280;26952;42.884;23.918;2022-08-01T08:14:38;95597.28;;;26.15;40.77
41222;BME280;26952;42.884;23.918;2022-08-01T08:17:04;95631.22;;;26.18;38.58
41222;BME280;26952;42.884;23.918;2022-08-01T08:19:30;95623.53;;;26.45;39.92
41222;BME280;26952;42.884;23.918;2022-08-01T08:22:01;95627.69;;;26.91;38.16
41222;BME280;26952;42.884;23.918;2022-08-01T08:24:26;95610.06;;;26.83;38.21
41222;BME280;26952;42.884;23.918;2022-08-01T08:26:57;95625.91;;;26.66;37.22
41222;BME280;26952;42.884;23.918;2022-08-01T08:29:23;95622.84;;;26.83;37.27
41222;BME280;26952;42.884;23.918;2022-08-01T08:31:50;95620.69;;;27.29;39.01
41222;BME280;26952;42.884;23.918;2022-08-01T08:34:16;95652.63;;;28.19;38.06
41222;BME280;26952;42.884;23.918;2022-08-01T08:36:42;95613.38;;;27.96;34.56
41222;BME280;26952;42.884;23.918;2022-08-01T08:39:07;95616.38;;;27.17;37.21
41222;BME280;26952;42.884;23.918;2022-08-01T08:41:33;95615.75;;;26.87;37.14
41222;BME280;26952;42.884;23.918;2022-08-01T08:44:07;95627.00;;;27.14;36.61
41222;BME280;26952;42.884;23.918;2022-08-01T08:46:33;95613.25;;;27.73;37.62
41222;BME280;26952;42.884;23.918;2022-08-01T08:49:03;95627.22;;;28.52;33.77
41222;BME280;26952;42.884;23.918;2022-08-01T08:51:30;95622.78;;;28.32;35.91
41222;BME280;26952;42.884;23.918;2022-08-01T08:53:57;95629.63;;;28.77;33.70
41222;BME280;26952;42.884;23.918;2022-08-01T08:56:26;95613.59;;;28.52;33.87
41222;BME280;26952;42.884;23.918;2022-08-01T08:58:55;95638.28;;;28.08;34.39
41222;BME280;26952;42.884;23.918;2022-08-01T09:01:20;95627.09;;;28.62;33.67
41222;BME280;26952;42.884;23.918;2022-08-01T09:03:47;95602.53;;;28.86;32.59
41222;BME280;26952;42.884;23.918;2022-08-01T09:06:12;95609.56;;;28.92;34.25
41222;BME280;26952;42.884;23.918;2022-08-01T09:08:39;95599.19;;;28.70;32.81
41222;BME280;26952;42.884;23.918;2022-08-01T09:11:05;95621.66;;;29.41;32.59
41222;BME280;26952;42.884;23.918;2022-08-01T09:13:30;95597.81;;;29.84;33.66
41222;BME280;26952;42.884;23.918;2022-08-01T09:15:56;95590.59;;;29.74;31.67
41222;BME280;26952;42.884;23.918;2022-08-01T09:23:40;95619.31;;;30.18;29.44
41222;BME280;26952;42.884;23.918;2022-08-01T09:26:09;95616.47;;;30.09;34.05
41222;BME280;26952;42.884;23.918;2022-08-01T09:28:35;95607.09;;;30.15;31.78
41222;BME280;26952;42.884;23.918;2022-08-01T09:31:16;95609.69;;;29.56;30.90
41222;BME280;26952;42.884;23.918;2022-08-01T09:36:27;95599.19;;;29.12;32.79
41222;BME280;26952;42.884;23.918;2022-08-01T09:39:12;95598.41;;;29.62;32.01
41222;BME280;26952;42.884;23.918;2022-08-01T09:41:38;95589.22;;;29.40;31.36
41222;BME280;26952;42.884;23.918;2022-08-01T09:44:04;95600.19;;;28.32;32.23
41222;BME280;26952;42.884;23.918;2022-08-01T09:46:30;95575.41;;;27.76;33.74
41222;BME280;26952;42.884;23.918;2022-08-01T09:49:13;95598.78;;;27.10;35.50
41222;BME280;26952;42.884;23.918;2022-08-01T09:51:39;95580.75;;;27.19;36.25
41222;BME280;26952;42.884;23.918;2022-08-01T09:54:05;95582.34;;;28.44;35.63
41222;BME280;26952;42.884;23.918;2022-08-01T09:56:42;95596.25;;;29.09;32.18
41222;BME280;26952;42.884;23.918;2022-08-01T09:59:08;95592.47;;;29.05;36.49
41222;BME280;26952;42.884;23.918;2022-08-01T10:01:49;95569.19;;;28.94;35.67
41222;BME280;26952;42.884;23.918;2022-08-01T10:04:16;95578.59;;;28.35;33.12
41222;BME280;26952;42.884;23.918;2022-08-01T10:06:44;95593.50;;;28.19;33.64
41222;BME280;26952;42.884;23.918;2022-08-01T10:09:12;95577.28;;;27.52;34.43
41222;BME280;26952;42.884;23.918;2022-08-01T10:11:38;95572.97;;;27.46;34.14
41222;BME280;26952;42.884;23.918;2022-08-01T10:14:05;95564.38;;;27.63;36.91
41222;BME280;26952;42.884;23.918;2022-08-01T10:16:32;95549.75;;;27.59;34.81
41222;BME280;26952;42.884;23.918;2022-08-01T10:18:59;95549.66;;;27.69;36.61
41222;BME280;26952;42.884;23.918;2022-08-01T10:21:27;95562.59;;;27.82;35.50
41222;BME280;26952;42.884;23.918;2022-08-01T10:23:54;95579.31;;;27.99;34.72
41222;BME280;26952;42.884;23.918;2022-08-01T10:26:20;95558.34;;;27.99;35.04
41222;BME280;26952;42.884;23.918;2022-08-01T10:28:48;95564.13;;;28.64;34.45
41222;BME280;26952;42.884;23.918;2022-08-01T10:31:14;95561.38;;;28.87;33.29
41222;BME280;26952;42.884;23.918;2022-08-01T10:33:41;95566.34;;;28.38;32.90
41222;BME280;26952;42.884;23.918;2022-08-01T10:36:08;95541.53;;;27.92;34.61
41222;BME280;26952;42.884;23.918;2022-08-01T10:38:34;95555.56;;;28.04;34.09
41222;BME280;26952;42.884;23.918;2022-08-01T10:41:02;95542.53;;;28.48;32.45
41222;BME280;26952;42.884;23.918;2022-08-01T10:43:27;95545.81;;;28.45;33.40
41222;BME280;26952;42.884;23.918;2022-08-01T10:45:54;95554.03;;;27.93;33.16
41222;BME280;26952;42.884;23.918;2022-08-01T10:48:47;95558.06;;;27.00;34.34
41222;BME280;26952;42.884;23.918;2022-08-01T10:51:16;95528.75;;;26.48;36.57
41222;BME280;26952;42.884;23.918;2022-08-01T10:53:51;95556.78;;;26.87;36.07
41222;BME280;26952;42.884;23.918;2022-08-01T10:56:16;95506.38;;;27.05;34.97
41222;BME280;26952;42.884;23.918;2022-08-01T10:58:44;95543.75;;;27.85;35.19
41222;BME280;26952;42.884;23.918;2022-08-01T11:01:29;95551.84;;;28.42;34.83
41222;BME280;26952;42.884;23.918;2022-08-01T11:06:35;95547.53;;;29.53;33.04
41222;BME280;26952;42.884;23.918;2022-08-01T11:09:04;95524.97;;;28.97;33.16
41222;BME280;26952;42.884;23.918;2022-08-01T11:11:30;95531.75;;;29.18;33.51
41222;BME280;26952;42.884;23.918;2022-08-01T11:14:03;95532.00;;;29.53;32.94
41222;BME280;26952;42.884;23.918;2022-08-01T11:16:36;95545.56;;;29.40;31.98
41222;BME280;26952;42.884;23.918;2022-08-01T11:19:04;95541.16;;;29.07;32.33
41222;BME280;26952;42.884;23.918;2022-08-01T11:24:53;95540.38;;;27.98;33.53
41222;BME280;26952;42.884;23.918;2022-08-01T11:27:27;95523.34;;;28.11;33.63
41222;BME280;26952;42.884;23.918;2022-08-01T11:32:45;95533.44;;;29.14;33.99
41222;BME280;26952;42.884;23.918;2022-08-01T11:35:11;95528.44;;;29.53;36.16
41222;BME280;26952;42.884;23.918;2022-08-01T11:37:37;95523.50;;;30.01;32.82
41222;BME280;26952;42.884;23.918;2022-08-01T11:40:29;95526.25;;;30.55;31.93
41222;BME280;26952;42.884;23.918;2022-08-01T11:45:54;95527.56;;;31.06;30.61
41222;BME280;26952;42.884;23.918;2022-08-01T11:48:25;95527.94;;;30.91;30.66
41222;BME280;26952;42.884;23.918;2022-08-01T11:50:52;95525.38;;;30.95;32.81
41222;BME280;26952;42.884;23.918;2022-08-01T11:53:19;95524.53;;;30.59;33.19
41222;BME280;26952;42.884;23.918;2022-08-01T11:55:54;95517.44;;;30.17;34.40
41222;BME280;26952;42.884;23.918;2022-08-01T11:58:24;95506.28;;;30.68;33.61
41222;BME280;26952;42.884;23.918;2022-08-01T12:00:57;95507.31;;;30.18;30.94
41222;BME280;26952;42.884;23.918;2022-08-01T12:03:30;95524.81;;;28.70;34.40
41222;BME280;26952;42.884;23.918;2022-08-01T12:05:57;95524.22;;;28.54;33.48
41222;BME280;26952;42.884;23.918;2022-08-01T12:08:30;95502.38;;;29.15;35.02
41222;BME280;26952;42.884;23.918;2022-08-01T12:10:59;95497.53;;;29.07;33.04
41222;BME280;26952;42.884;23.918;2022-08-01T12:13:24;95513.69;;;28.42;33.66
41222;BME280;26952;42.884;23.918;2022-08-01T12:15:50;95503.56;;;28.48;34.41
41222;BME280;26952;42.884;23.918;2022-08-01T12:18:16;95504.38;;;28.86;36.76
41222;BME280;26952;42.884;23.918;2022-08-01T12:20:44;95487.97;;;28.91;34.42
41222;BME280;26952;42.884;23.918;2022-08-01T12:23:12;95495.91;;;29.06;33.17
41222;BME280;26952;42.884;23.918;2022-08-01T12:25:38;95497.63;;;29.02;33.48
41222;BME280;26952;42.884;23.918;2022-08-01T12:28:07;95495.84;;;28.55;34.40
41222;BME280;26952;42.884;23.918;2022-08-01T12:30:34;95510.00;;;28.57;35.60
41222;BME280;26952;42.884;23.918;2022-08-01T12:33:02;95501.28;;;28.92;34.50
41222;BME280;26952;42.884;23.918;2022-08-01T12:35:29;95491.16;;;28.18;35.27
41222;BME280;26952;42.884;23.918;2022-08-01T12:37:57;95514.22;;;28.02;35.23
41222;BME280;26952;42.884;23.918;2022-08-01T12:40:35;95501.31;;;27.84;35.49
41222;BME280;26952;42.884;23.918;2022-08-01T12:43:03;95512.22;;;28.31;34.95
41222;BME280;26952;42.884;23.918;2022-08-01T12:45:49;95505.50;;;28.85;34.52
41222;BME280;26952;42.884;23.918;2022-08-01T12:48:16;95512.28;;;29.24;33.28
41222;BME280;26952;42.884;23.918;2022-08-01T12:50:48;95502.63;;;29.13;33.70
41222;BME280;26952;42.884;23.918;2022-08-01T12:53:14;95515.88;;;29.20;33.26
41222;BME280;26952;42.884;23.918;2022-08-01T12:55:51;95498.00;;;29.46;33.55
41222;BME280;26952;42.884;23.918;2022-08-01T12:58:19;95498.75;;;29.33;32.44
41222;BME280;26952;42.884;23.918;2022-08-01T13:00:47;95505.38;;;28.95;34.29
41222;BME280;26952;42.884;23.918;2022-08-01T13:03:18;95497.63;;;28.65;33.93
41222;BME280;26952;42.884;23.918;2022-08-01T13:08:13;95513.47;;;27.01;37.52
41222;BME280;26952;42.884;23.918;2022-08-01T13:10:39;95495.41;;;27.20;36.21
41222;BME280;26952;42.884;23.918;2022-08-01T13:13:05;95495.72;;;27.47;36.67
41222;BME280;26952;42.884;23.918;2022-08-01T13:15:32;95487.41;;;27.86;36.87
41222;BME280;26952;42.884;23.918;2022-08-01T13:18:02;95482.78;;;27.86;35.91
41222;BME280;26952;42.884;23.918;2022-08-01T13:20:46;95498.97;;;28.25;35.91
41222;BME280;26952;42.884;23.918;2022-08-01T13:23:17;95488.16;;;28.38;34.99
41222;BME280;26952;42.884;23.918;2022-08-01T13:25:51;95491.50;;;28.54;35.35